Julianehab, Greenland
Current Conditions -  °F | °C
As of 6:50 PM on Friday 28 Nov 2014 (Local Time) from BGBW Reporting Station
Few Clouds Few Clouds  
Wind Chill: -3°   Ceiling: Unl
Heat Index:   Visibility: 6mi
Dew Point: -6°   Wind: 7mph
Humidity: 52%   Direction: 70°ENE
Pressure: 29.41"   Gusts: NA
Location:  60.75°N, 46.01°W
Report Text: BGBW 282050Z 07006KT 9999 FEW200 M13/M21 Q0996
Loading
Personal Weather Stations






























Interactive Weather Map New forecast layout! Learn more

10-Day Weather Forecast

Advertisements
Track Severe Weather on mobile